Time;durP1;ratioP1;P1;durP2;ratioP2;P2;SDS_P1;SDS_P2;PMS_P1;PMS_P2;Temp;Humidity;BMP_temperature;BMP_pressure;BME280_temperature;BME280_humidity;BME280_pressure;Samples;Min_cycle;Max_cycle;Signal;HPM_P1;HPM_P2
2021/05/05 00:01:12;;;;;;;2.60;2.50;;;18.10;29.70;;;;;;5032345;28;20208;-73
2021/05/05 00:03:37;;;;;;;2.53;2.43;;;18.10;29.80;;;;;;5032162;28;20168;-73
2021/05/05 00:06:04;;;;;;;2.57;2.37;;;18.10;29.80;;;;;;5031579;28;20173;-73
2021/05/05 00:08:30;;;;;;;2.53;2.43;;;18.10;29.80;;;;;;5031368;28;20193;-73
2021/05/05 00:10:56;;;;;;;2.60;2.50;;;18.10;29.70;;;;;;5032136;28;20414;-73
2021/05/05 00:13:22;;;;;;;2.90;2.80;;;18.10;29.80;;;;;;5030469;28;20180;-73
2021/05/05 00:15:48;;;;;;;2.37;2.27;;;18.10;29.80;;;;;;5031760;28;20838;-73
2021/05/05 00:18:13;;;;;;;2.60;2.50;;;18.10;29.80;;;;;;5031972;28;20219;-73
2021/05/05 00:20:39;;;;;;;2.43;2.33;;;18.10;29.80;;;;;;5031489;28;20180;-73
2021/05/05 00:23:05;;;;;;;2.30;2.20;;;18.10;29.80;;;;;;5031865;28;20887;-73
2021/05/05 00:25:30;;;;;;;2.47;2.37;;;18.10;29.80;;;;;;5031764;28;20411;-73
2021/05/05 00:27:56;;;;;;;2.67;2.47;;;18.10;29.80;;;;;;5031777;28;20203;-73
2021/05/05 00:30:23;;;;;;;2.70;2.60;;;18.10;29.80;;;;;;5031778;28;20522;-73
2021/05/05 00:32:49;;;;;;;2.30;2.20;;;18.10;29.80;;;;;;5030751;28;20176;-73
2021/05/05 00:35:14;;;;;;;2.70;2.50;;;18.10;29.70;;;;;;5031291;28;20410;-73
2021/05/05 00:37:41;;;;;;;3.70;2.63;;;18.10;29.80;;;;;;5031611;28;20618;-73
2021/05/05 00:40:08;;;;;;;2.50;2.40;;;18.10;29.70;;;;;;5030602;28;20551;-73
2021/05/05 00:42:34;;;;;;;2.50;2.40;;;18.10;29.80;;;;;;5031721;28;20408;-73
2021/05/05 00:45:03;;;;;;;2.47;2.37;;;18.10;29.80;;;;;;5031707;28;20457;-73
2021/05/05 00:47:29;;;;;;;2.20;2.20;;;18.00;29.70;;;;;;5032057;28;20787;-73
2021/05/05 00:49:55;;;;;;;2.33;2.23;;;18.10;29.80;;;;;;5030193;28;20530;-73
2021/05/05 00:52:21;;;;;;;2.30;2.20;;;18.00;29.70;;;;;;5026760;28;20907;-72
2021/05/05 00:54:46;;;;;;;2.80;2.60;;;18.00;29.70;;;;;;5012150;28;20465;-72
2021/05/05 00:57:13;;;;;;;2.60;2.50;;;18.00;29.70;;;;;;5013332;28;20197;-72
2021/05/05 00:59:39;;;;;;;2.57;2.47;;;18.00;29.70;;;;;;5012301;28;20194;-73
2021/05/05 01:02:05;;;;;;;2.47;2.37;;;18.10;29.80;;;;;;5012229;28;20495;-73
2021/05/05 01:04:31;;;;;;;2.27;2.17;;;18.10;29.80;;;;;;5011418;28;20438;-72
2021/05/05 01:06:56;;;;;;;2.43;2.33;;;18.00;29.70;;;;;;5011695;28;20416;-73
2021/05/05 01:09:22;;;;;;;2.67;2.57;;;18.00;29.70;;;;;;5011927;28;20285;-72
2021/05/05 01:11:48;;;;;;;2.40;2.30;;;18.00;29.70;;;;;;5011494;28;20182;-72
2021/05/05 01:14:16;;;;;;;2.53;2.43;;;18.10;29.80;;;;;;5011684;28;20777;-73
2021/05/05 01:16:41;;;;;;;2.50;2.40;;;18.00;29.80;;;;;;5011397;28;20201;-73
2021/05/05 01:19:07;;;;;;;2.50;2.40;;;18.00;29.70;;;;;;5012377;28;20788;-73
2021/05/05 01:21:33;;;;;;;2.40;2.30;;;18.00;29.70;;;;;;5015374;28;20610;-73
2021/05/05 01:23:58;;;;;;;2.33;2.23;;;18.00;29.70;;;;;;5014489;28;20170;-73
2021/05/05 01:26:24;;;;;;;2.20;2.10;;;18.00;29.70;;;;;;5014957;28;20181;-73
2021/05/05 01:28:49;;;;;;;2.50;2.40;;;18.10;29.80;;;;;;5015233;28;20201;-73
2021/05/05 01:31:16;;;;;;;2.37;2.27;;;18.10;29.80;;;;;;5015291;28;20213;-73
2021/05/05 01:33:42;;;;;;;2.50;2.40;;;18.00;29.70;;;;;;5014721;28;20181;-73
2021/05/05 01:36:12;;;;;;;2.50;2.40;;;18.10;29.80;;;;;;5014886;28;20456;-73
2021/05/05 01:38:37;;;;;;;2.50;2.40;;;18.00;29.70;;;;;;5015109;28;21016;-73
2021/05/05 01:41:04;;;;;;;2.30;2.20;;;18.00;29.80;;;;;;5014867;28;20404;-73
2021/05/05 01:43:30;;;;;;;4.20;3.00;;;18.00;29.70;;;;;;5015076;28;20265;-73
2021/05/05 01:45:56;;;;;;;2.40;2.30;;;18.00;29.70;;;;;;5014785;28;20412;-73
2021/05/05 01:48:21;;;;;;;2.63;2.53;;;18.00;29.80;;;;;;5014483;28;20436;-72
2021/05/05 01:50:47;;;;;;;2.03;2.03;;;18.00;29.80;;;;;;5013578;28;20185;-72
2021/05/05 01:53:16;;;;;;;2.20;2.10;;;18.00;29.80;;;;;;5014816;28;20181;-72
2021/05/05 01:55:42;;;;;;;2.10;2.10;;;18.00;29.80;;;;;;5014318;28;20165;-73
2021/05/05 01:58:08;;;;;;;2.03;2.03;;;18.00;29.80;;;;;;5014933;28;20511;-73
2021/05/05 02:00:33;;;;;;;2.60;2.50;;;18.00;29.80;;;;;;5014649;28;20496;-73
2021/05/05 02:02:59;;;;;;;2.60;2.40;;;18.00;29.80;;;;;;5014284;28;20181;-73
2021/05/05 02:05:24;;;;;;;2.07;2.00;;;18.00;29.80;;;;;;5014580;28;20308;-73
2021/05/05 02:07:50;;;;;;;2.40;2.30;;;18.00;29.80;;;;;;5014710;28;20264;-73
2021/05/05 02:10:18;;;;;;;2.13;2.03;;;18.00;29.80;;;;;;5014215;28;20248;-73
2021/05/05 02:12:43;;;;;;;2.50;2.30;;;18.00;29.70;;;;;;5013146;28;20196;-73
2021/05/05 02:15:12;;;;;;;2.47;2.37;;;18.00;29.80;;;;;;5013996;28;20436;-72
2021/05/05 02:17:38;;;;;;;2.40;2.30;;;18.00;29.80;;;;;;5013853;28;20635;-73
2021/05/05 02:20:14;;;;;;;3.43;2.40;;;18.00;29.80;;;;;;5014314;28;20436;-72
2021/05/05 02:22:40;;;;;;;2.13;2.10;;;18.00;29.80;;;;;;5014276;28;20775;-73
2021/05/05 02:25:07;;;;;;;2.20;2.20;;;18.00;29.80;;;;;;5013669;28;20495;-73
2021/05/05 02:27:34;;;;;;;2.10;2.10;;;18.00;29.80;;;;;;5014242;28;20174;-73
2021/05/05 02:29:59;;;;;;;2.50;2.30;;;18.00;29.80;;;;;;5011836;28;20789;-73
2021/05/05 02:32:25;;;;;;;2.27;2.17;;;18.00;29.80;;;;;;5013804;28;20419;-73
2021/05/05 02:34:52;;;;;;;2.30;2.20;;;18.00;29.80;;;;;;5013983;28;20644;-73
2021/05/05 02:37:18;;;;;;;2.57;2.47;;;18.00;29.80;;;;;;5013791;28;20714;-73
2021/05/05 02:39:44;;;;;;;1.90;1.90;;;18.00;29.80;;;;;;5012249;28;20437;-73
2021/05/05 02:42:14;;;;;;;2.10;2.10;;;18.00;29.90;;;;;;5014039;28;20180;-72
2021/05/05 02:44:40;;;;;;;2.30;2.20;;;18.00;29.80;;;;;;5013690;28;20475;-73
2021/05/05 02:47:07;;;;;;;2.43;2.33;;;18.00;29.80;;;;;;5013284;28;20508;-72
2021/05/05 02:49:33;;;;;;;2.47;2.37;;;18.00;29.80;;;;;;5013699;28;20443;-73
2021/05/05 02:52:00;;;;;;;2.13;2.13;;;18.00;29.80;;;;;;5013689;28;20416;-73
2021/05/05 02:54:26;;;;;;;2.30;2.20;;;18.00;29.90;;;;;;5013808;28;20847;-72
2021/05/05 02:56:52;;;;;;;2.20;2.20;;;18.00;29.80;;;;;;5011899;28;21041;-73
2021/05/05 02:59:17;;;;;;;2.30;2.10;;;18.00;29.80;;;;;;5012170;28;20428;-73
2021/05/05 03:01:43;;;;;;;2.20;2.20;;;17.90;29.70;;;;;;5013451;28;20640;-73
2021/05/05 03:04:08;;;;;;;2.60;2.50;;;18.00;29.80;;;;;;5013334;28;20174;-73
2021/05/05 03:06:34;;;;;;;2.47;2.37;;;18.00;29.80;;;;;;5013279;28;20219;-73
2021/05/05 03:09:00;;;;;;;2.40;2.30;;;18.00;29.80;;;;;;5013353;28;20660;-73
2021/05/05 03:11:25;;;;;;;2.50;2.40;;;17.90;30.20;;;;;;5013145;28;20178;-73
2021/05/05 03:13:52;;;;;;;2.40;2.30;;;17.90;29.70;;;;;;5013031;28;20447;-73
2021/05/05 03:16:17;;;;;;;2.23;2.10;;;18.00;29.90;;;;;;5013011;28;20275;-73
2021/05/05 03:18:43;;;;;;;2.63;2.53;;;17.90;29.70;;;;;;5012836;28;20487;-73
2021/05/05 03:21:08;;;;;;;2.10;2.10;;;18.00;29.80;;;;;;5013215;28;20173;-73
2021/05/05 03:23:34;;;;;;;2.53;2.43;;;17.90;29.80;;;;;;5011928;28;20177;-73
2021/05/05 03:25:59;;;;;;;2.40;2.30;;;17.90;29.70;;;;;;5012578;28;20211;-73
2021/05/05 03:28:25;;;;;;;2.30;2.20;;;17.90;29.70;;;;;;5012893;28;20558;-73
2021/05/05 03:30:51;;;;;;;2.30;2.20;;;17.90;29.80;;;;;;5011790;28;20208;-72
2021/05/05 03:33:16;;;;;;;2.40;2.30;;;17.90;29.80;;;;;;5012755;28;20181;-73
2021/05/05 03:35:42;;;;;;;2.40;2.40;;;17.90;29.80;;;;;;5011399;28;20595;-73
2021/05/05 03:38:08;;;;;;;2.30;2.20;;;17.90;29.80;;;;;;5012819;28;20228;-73
2021/05/05 03:40:34;;;;;;;2.30;2.20;;;17.90;29.80;;;;;;5012479;28;20264;-72
2021/05/05 03:43:00;;;;;;;2.10;2.10;;;17.90;29.80;;;;;;5011799;28;20181;-73
2021/05/05 03:45:25;;;;;;;2.40;2.30;;;17.90;29.80;;;;;;5012533;28;20440;-72
2021/05/05 03:47:51;;;;;;;2.00;1.90;;;17.90;29.80;;;;;;5012363;28;20212;-73
2021/05/05 03:50:17;;;;;;;2.27;2.17;;;17.90;29.80;;;;;;5012804;28;20563;-72
2021/05/05 03:52:43;;;;;;;2.40;2.30;;;17.90;29.80;;;;;;5012786;28;20227;-72
2021/05/05 03:55:09;;;;;;;2.30;2.30;;;17.90;29.80;;;;;;5012145;28;20420;-73
2021/05/05 03:57:35;;;;;;;2.33;2.23;;;18.00;29.90;;;;;;5012296;28;20293;-73
2021/05/05 04:00:00;;;;;;;2.63;2.53;;;17.90;29.80;;;;;;5012317;28;20420;-73
2021/05/05 04:02:26;;;;;;;2.23;2.13;;;17.90;29.80;;;;;;5012156;28;20170;-73
2021/05/05 04:04:52;;;;;;;1.93;1.93;;;17.90;29.90;;;;;;5012379;28;20663;-72
2021/05/05 04:07:17;;;;;;;2.83;2.70;;;18.00;29.90;;;;;;5012382;28;20580;-71
2021/05/05 04:09:43;;;;;;;2.83;2.63;;;18.10;30.50;;;;;;5012020;28;20197;-71
2021/05/05 04:12:10;;;;;;;2.70;2.60;;;18.30;30.70;;;;;;5012372;28;20177;-71
2021/05/05 04:14:35;;;;;;;3.33;2.53;;;18.40;30.30;;;;;;5012577;28;20271;-71
2021/05/05 04:17:01;;;;;;;3.00;2.63;;;18.60;30.60;;;;;;5010483;28;21117;-71
2021/05/05 04:19:27;;;;;;;2.50;2.30;;;18.90;30.20;;;;;;5012382;28;20192;-71
2021/05/05 04:21:52;;;;;;;2.80;2.70;;;19.10;29.90;;;;;;5012227;28;20169;-71
2021/05/05 04:24:18;;;;;;;2.50;2.40;;;19.30;29.50;;;;;;5011946;28;20782;-71
2021/05/05 04:26:46;;;;;;;3.07;2.87;;;19.40;29.60;;;;;;5012000;28;20581;-71
2021/05/05 04:29:12;;;;;;;2.87;2.57;;;19.60;29.70;;;;;;5011436;28;20220;-71
2021/05/05 04:31:38;;;;;;;3.40;3.10;;;19.70;29.70;;;;;;5011613;28;20444;-70
2021/05/05 04:34:04;;;;;;;5.30;3.00;;;19.80;29.40;;;;;;5012147;28;20177;-70
2021/05/05 04:36:29;;;;;;;3.77;2.90;;;19.80;29.10;;;;;;5011980;28;20200;-71
2021/05/05 04:38:55;;;;;;;3.90;3.00;;;19.90;29.00;;;;;;5011789;28;20528;-70
2021/05/05 04:41:20;;;;;;;3.23;2.70;;;20.00;28.90;;;;;;5012046;28;20216;-71
2021/05/05 04:43:46;;;;;;;2.67;2.57;;;20.10;28.80;;;;;;5012265;28;20678;-70
2021/05/05 04:46:11;;;;;;;2.63;2.53;;;20.20;28.70;;;;;;5011604;28;20706;-71
2021/05/05 04:48:37;;;;;;;4.83;2.97;;;20.20;28.50;;;;;;5010952;28;20726;-71
2021/05/05 04:51:03;;;;;;;5.73;2.90;;;20.20;28.50;;;;;;5012503;28;20174;-71
2021/05/05 04:53:28;;;;;;;2.53;2.43;;;20.20;28.50;;;;;;5014210;28;20288;-71
2021/05/05 04:55:54;;;;;;;3.73;2.53;;;20.20;28.80;;;;;;5016963;28;20173;-74
2021/05/05 04:58:20;;;;;;;2.30;2.20;;;20.20;28.80;;;;;;5017230;28;20218;-74
2021/05/05 05:00:46;;;;;;;2.63;2.43;;;19.70;26.90;;;;;;5016090;28;20192;-73
2021/05/05 05:03:11;;;;;;;2.30;2.20;;;19.20;26.20;;;;;;5016102;28;20396;-73
2021/05/05 05:05:37;;;;;;;5.33;2.43;;;18.90;26.60;;;;;;5015851;28;20197;-73
2021/05/05 05:08:03;;;;;;;3.20;2.60;;;18.60;26.20;;;;;;5015512;28;20204;-72
2021/05/05 05:10:28;;;;;;;2.77;2.67;;;18.40;26.20;;;;;;5015567;28;20170;-74
2021/05/05 05:12:55;;;;;;;2.20;2.10;;;18.20;26.50;;;;;;5015787;28;20212;-73
2021/05/05 05:15:21;;;;;;;2.43;2.23;;;18.10;26.30;;;;;;5015116;28;20193;-74
2021/05/05 05:17:47;;;;;;;2.43;2.33;;;18.00;26.40;;;;;;5015466;28;20455;-73
2021/05/05 05:20:13;;;;;;;2.50;2.40;;;17.90;26.40;;;;;;5015596;28;20419;-74
2021/05/05 05:22:38;;;;;;;2.17;2.07;;;17.70;26.10;;;;;;5015405;28;20170;-74
2021/05/05 05:25:07;;;;;;;6.17;2.73;;;17.60;26.30;;;;;;5015092;28;20257;-73
2021/05/05 05:27:32;;;;;;;5.73;2.60;;;17.60;26.70;;;;;;5015373;28;20204;-72
2021/05/05 05:29:58;;;;;;;4.33;2.20;;;17.40;26.40;;;;;;5015097;28;20444;-73
2021/05/05 05:32:24;;;;;;;5.23;2.20;;;17.30;26.10;;;;;;5015327;28;20180;-75
2021/05/05 05:34:50;;;;;;;2.47;2.27;;;17.10;26.20;;;;;;5015276;28;20502;-74
2021/05/05 05:37:15;;;;;;;2.60;2.40;;;16.90;26.40;;;;;;5013612;28;20197;-73
2021/05/05 05:39:41;;;;;;;2.33;2.23;;;16.70;26.70;;;;;;5014985;28;20189;-73
2021/05/05 05:42:07;;;;;;;2.10;2.00;;;16.60;26.80;;;;;;5015086;28;20165;-73
2021/05/05 05:44:33;;;;;;;2.33;2.20;;;16.50;27.00;;;;;;5015041;28;20412;-74
2021/05/05 05:46:58;;;;;;;2.60;2.50;;;16.50;27.10;;;;;;5014489;28;20205;-73
2021/05/05 05:49:24;;;;;;;2.90;2.40;;;16.40;27.10;;;;;;5014834;28;20200;-73
2021/05/05 05:51:49;;;;;;;2.30;2.20;;;16.30;27.10;;;;;;5014925;28;20319;-74
2021/05/05 05:54:15;;;;;;;2.50;2.40;;;16.30;27.30;;;;;;5014381;28;20177;-74
2021/05/05 05:56:41;;;;;;;2.30;2.10;;;16.20;27.40;;;;;;5014007;28;20289;-75
2021/05/05 05:59:06;;;;;;;5.30;2.37;;;16.10;27.30;;;;;;5014806;28;20208;-74
2021/05/05 06:01:32;;;;;;;3.10;2.50;;;16.10;27.40;;;;;;5014604;28;20169;-75
2021/05/05 06:03:57;;;;;;;26.20;6.27;;;16.20;27.40;;;;;;5014877;28;20223;-74
2021/05/05 06:06:23;;;;;;;7.73;3.63;;;16.30;27.30;;;;;;5013442;28;20635;-76
2021/05/05 06:08:48;;;;;;;5.30;2.80;;;16.30;27.10;;;;;;5014232;28;20196;-75
2021/05/05 06:11:14;;;;;;;7.30;3.17;;;16.40;26.70;;;;;;5014384;28;20200;-76
2021/05/05 06:13:40;;;;;;;4.70;2.80;;;16.50;27.00;;;;;;5013320;28;20272;-76
2021/05/05 06:16:05;;;;;;;3.10;2.90;;;16.50;26.70;;;;;;5014420;28;20239;-77
2021/05/05 06:18:31;;;;;;;4.97;2.70;;;16.60;26.50;;;;;;5014295;28;20197;-76
2021/05/05 06:20:56;;;;;;;3.00;2.80;;;16.70;26.20;;;;;;5014422;28;20177;-76
2021/05/05 06:23:22;;;;;;;3.20;2.93;;;16.70;26.00;;;;;;5014240;28;20177;-74
2021/05/05 06:25:48;;;;;;;4.17;3.97;;;16.70;26.00;;;;;;5014147;28;20173;-73
2021/05/05 06:28:13;;;;;;;3.37;2.80;;;16.60;25.90;;;;;;5014363;28;20737;-73
2021/05/05 06:30:42;;;;;;;3.00;2.80;;;16.50;25.90;;;;;;5013988;28;20178;-74
2021/05/05 06:33:07;;;;;;;4.07;3.07;;;16.30;25.90;;;;;;5014054;28;20173;-73
2021/05/05 06:35:33;;;;;;;3.33;2.30;;;16.20;26.20;;;;;;5011058;28;20431;-72
2021/05/05 06:37:59;;;;;;;8.40;3.03;;;16.00;26.00;;;;;;5012013;28;20221;-72
2021/05/05 06:40:24;;;;;;;2.87;2.77;;;15.90;26.40;;;;;;5013861;28;20185;-72
2021/05/05 06:42:50;;;;;;;3.73;2.70;;;15.90;26.40;;;;;;5013846;28;20173;-73
2021/05/05 06:45:16;;;;;;;3.07;2.80;;;15.80;26.30;;;;;;5013460;28;20537;-73
2021/05/05 06:47:41;;;;;;;3.33;3.03;;;15.60;26.50;;;;;;5013731;28;20556;-74
2021/05/05 06:50:08;;;;;;;4.07;3.77;;;15.60;26.70;;;;;;5013702;28;20420;-72
2021/05/05 06:52:34;;;;;;;4.53;3.47;;;15.50;26.90;;;;;;5012240;28;20182;-73
2021/05/05 06:55:00;;;;;;;6.17;3.33;;;15.50;27.10;;;;;;5012378;28;20426;-72
2021/05/05 06:57:25;;;;;;;5.63;3.30;;;15.40;27.10;;;;;;5013767;28;20299;-74
2021/05/05 06:59:51;;;;;;;3.80;3.33;;;15.40;26.90;;;;;;5013270;28;20532;-73
2021/05/05 07:02:17;;;;;;;3.63;3.40;;;15.30;27.10;;;;;;5013582;28;20180;-73
2021/05/05 07:04:42;;;;;;;3.60;3.30;;;15.20;27.50;;;;;;5013527;28;20184;-72
2021/05/05 07:07:08;;;;;;;3.63;3.43;;;15.20;27.60;;;;;;5011535;28;20185;-75
2021/05/05 07:09:33;;;;;;;4.40;3.53;;;15.00;27.10;;;;;;5012327;28;20552;-72
2021/05/05 07:11:59;;;;;;;5.73;3.43;;;15.00;27.10;;;;;;5013400;28;20185;-74
2021/05/05 07:14:24;;;;;;;7.93;3.10;;;15.00;26.60;;;;;;5012835;28;20197;-73
2021/05/05 07:16:50;;;;;;;4.63;3.30;;;15.00;26.60;;;;;;5012751;28;20304;-74
2021/05/05 07:19:16;;;;;;;7.20;3.47;;;15.00;26.60;;;;;;5013136;28;20193;-73
2021/05/05 07:21:42;;;;;;;5.00;3.20;;;15.00;26.60;;;;;;5012668;28;20228;-73
2021/05/05 07:24:07;;;;;;;4.50;2.80;;;15.00;26.60;;;;;;5012843;28;20412;-72
2021/05/05 07:26:33;;;;;;;18.53;5.20;;;15.00;26.60;;;;;;5012262;28;20177;-71
2021/05/05 07:28:58;;;;;;;8.00;4.00;;;15.00;27.10;;;;;;5012692;28;20304;-72
2021/05/05 07:31:24;;;;;;;5.13;4.53;;;14.90;26.80;;;;;;5013228;28;20185;-72
2021/05/05 07:33:51;;;;;;;3.40;3.10;;;14.90;27.00;;;;;;5013227;28;20652;-73
2021/05/05 07:36:24;;;;;;;4.27;3.40;;;14.90;26.50;;;;;;5012250;28;20204;-73
2021/05/05 07:42:14;;;;;;;8.83;3.67;;;15.30;27.80;;;;;;5013097;28;20470;-73
2021/05/05 07:49:20;;;;;;;3.80;3.50;;;16.30;25.40;;;;;;5012665;28;20447;-73
2021/05/05 07:51:46;;;;;;;3.40;3.10;;;16.50;24.90;;;;;;5012467;28;20173;-72
2021/05/05 07:54:13;;;;;;;6.57;3.77;;;16.60;24.40;;;;;;5012677;28;20507;-71
2021/05/05 07:56:39;;;;;;;2.90;2.70;;;16.80;23.70;;;;;;5012336;28;20926;-72
2021/05/05 07:59:05;;;;;;;3.37;3.07;;;16.90;23.30;;;;;;5010742;28;20437;-71
2021/05/05 08:01:32;;;;;;;3.27;2.97;;;17.00;23.30;;;;;;5012784;28;20427;-72
2021/05/05 08:03:58;;;;;;;3.27;3.00;;;17.00;22.10;;;;;;5012732;28;20408;-73
2021/05/05 08:06:25;;;;;;;3.40;2.90;;;17.10;22.60;;;;;;5011861;28;20420;-73
2021/05/05 08:08:51;;;;;;;3.03;2.83;;;17.10;21.80;;;;;;5012146;28;20456;-72
2021/05/05 08:11:17;;;;;;;4.90;3.53;;;17.10;22.40;;;;;;5012330;28;20478;-73
2021/05/05 08:13:44;;;;;;;4.70;3.03;;;17.00;21.30;;;;;;5011855;28;20428;-72
2021/05/05 08:16:09;;;;;;;4.50;2.70;;;17.00;21.80;;;;;;5010784;28;20232;-72
2021/05/05 08:18:35;;;;;;;4.93;2.70;;;17.00;21.30;;;;;;5012515;28;20451;-73
2021/05/05 08:21:07;;;;;;;4.00;2.90;;;17.00;21.20;;;;;;5012023;28;20483;-73
2021/05/05 08:23:33;;;;;;;2.70;2.50;;;17.00;21.20;;;;;;5012325;28;20404;-73
2021/05/05 08:25:58;;;;;;;4.40;2.90;;;16.90;20.90;;;;;;5012063;28;20463;-73
2021/05/05 08:28:25;;;;;;;2.90;2.70;;;16.90;20.70;;;;;;5011106;28;20463;-74
2021/05/05 08:30:51;;;;;;;3.83;2.90;;;16.80;20.60;;;;;;5011101;28;20524;-74
2021/05/05 08:33:18;;;;;;;3.00;2.50;;;16.70;20.50;;;;;;5012086;28;20943;-73
2021/05/05 08:35:44;;;;;;;3.10;2.90;;;16.70;20.30;;;;;;5011703;28;20423;-73
2021/05/05 08:38:09;;;;;;;5.80;3.10;;;16.60;20.40;;;;;;5012000;28;20464;-72
2021/05/05 08:40:35;;;;;;;3.27;3.07;;;16.60;20.70;;;;;;5011977;28;20196;-73
2021/05/05 08:43:01;;;;;;;4.00;3.20;;;16.60;20.60;;;;;;5011516;28;20183;-73
2021/05/05 08:45:29;;;;;;;9.03;3.70;;;16.50;20.40;;;;;;5011849;28;20177;-73
2021/05/05 08:48:06;;;;;;;3.13;2.93;;;16.50;20.60;;;;;;5011950;28;20455;-72
2021/05/05 08:50:33;;;;;;;3.90;3.03;;;16.50;20.60;;;;;;5011843;28;20420;-73
2021/05/05 08:53:02;;;;;;;3.70;3.40;;;16.50;20.60;;;;;;5012061;28;20420;-73
2021/05/05 08:55:29;;;;;;;8.57;3.50;;;16.50;20.30;;;;;;5011611;28;20501;-74
2021/05/05 08:57:55;;;;;;;3.47;2.83;;;16.40;20.10;;;;;;5010343;28;20478;-74
2021/05/05 09:00:24;;;;;;;3.73;2.90;;;16.40;20.00;;;;;;5010604;28;20837;-72
2021/05/05 09:02:50;;;;;;;4.00;3.27;;;16.40;19.90;;;;;;5011952;28;20413;-72
2021/05/05 09:05:16;;;;;;;3.57;3.10;;;16.30;19.20;;;;;;5011832;28;20419;-74
2021/05/05 09:07:44;;;;;;;3.20;2.90;;;16.30;19.40;;;;;;5012074;28;20499;-73
2021/05/05 09:10:21;;;;;;;3.07;2.87;;;16.30;19.40;;;;;;5012202;28;20423;-72
2021/05/05 09:12:51;;;;;;;3.77;3.43;;;16.30;19.20;;;;;;5012090;28;20412;-73
2021/05/05 09:15:22;;;;;;;3.73;3.47;;;16.20;19.40;;;;;;5010494;28;20450;-73
2021/05/05 09:17:53;;;;;;;3.27;3.10;;;16.20;19.10;;;;;;5011911;28;20460;-74
2021/05/05 09:20:29;;;;;;;2.90;2.80;;;16.20;19.10;;;;;;5012025;28;20431;-73
2021/05/05 09:22:58;;;;;;;3.43;3.13;;;16.20;19.10;;;;;;5012643;28;20848;-74
2021/05/05 09:25:26;;;;;;;3.73;3.43;;;16.20;19.10;;;;;;5018151;28;20420;-72
2021/05/05 09:28:21;;;;;;;3.30;3.00;;;16.20;19.10;;;;;;5020504;28;20839;-73
2021/05/05 09:30:52;;;;;;;3.23;2.97;;;16.20;18.60;;;;;;5023967;28;20412;-72
2021/05/05 09:33:25;;;;;;;3.90;3.17;;;16.20;18.40;;;;;;5014847;28;20503;-73
2021/05/05 09:35:56;;;;;;;3.40;3.20;;;16.20;18.60;;;;;;5011926;28;20773;-73
2021/05/05 09:38:51;;;;;;;2.67;2.57;;;16.20;18.30;;;;;;5011563;28;20440;-72
2021/05/05 09:41:22;;;;;;;2.47;2.30;;;16.20;18.60;;;;;;5014075;28;20439;-70
2021/05/05 09:43:49;;;;;;;4.00;2.57;;;16.20;18.10;;;;;;5014901;28;20459;-74
2021/05/05 09:46:46;;;;;;;2.80;2.63;;;16.20;17.90;;;;;;5014882;28;20495;-72
2021/05/05 09:49:20;;;;;;;3.00;2.80;;;16.30;18.10;;;;;;5013525;28;20440;-72
2021/05/05 09:52:09;;;;;;;3.37;3.07;;;16.30;18.10;;;;;;5014682;28;20423;-71
2021/05/05 09:54:51;;;;;;;2.40;2.20;;;16.20;17.90;;;;;;5014873;28;20507;-71
2021/05/05 09:57:31;;;;;;;4.20;3.13;;;16.20;17.80;;;;;;4993609;28;20991;-72
2021/05/05 10:00:04;;;;;;;2.90;2.70;;;16.20;18.20;;;;;;4994887;28;20426;-72
2021/05/05 10:02:39;;;;;;;3.93;3.67;;;16.20;18.10;;;;;;5012196;28;20646;-70
2021/05/05 10:05:08;;;;;;;6.87;3.60;;;16.20;18.10;;;;;;5014315;28;20414;-71
2021/05/05 10:07:54;;;;;;;3.23;2.93;;;16.20;18.00;;;;;;5014312;28;20452;-71
2021/05/05 10:10:24;;;;;;;3.70;3.40;;;16.20;17.90;;;;;;5010066;28;20444;-71
2021/05/05 10:12:49;;;;;;;3.00;2.73;;;16.20;17.70;;;;;;5012782;28;20429;-72
2021/05/05 10:15:16;;;;;;;2.83;2.50;;;16.20;17.50;;;;;;5011086;28;20947;-71
2021/05/05 10:17:47;;;;;;;3.30;2.63;;;16.20;17.90;;;;;;5014094;28;20209;-72
2021/05/05 10:20:19;;;;;;;3.07;2.87;;;16.20;17.40;;;;;;5014035;28;20409;-72
2021/05/05 10:22:44;;;;;;;3.07;2.80;;;16.20;17.60;;;;;;5014220;28;20412;-71
2021/05/05 10:25:14;;;;;;;3.20;2.90;;;16.20;17.60;;;;;;5013871;28;20474;-71
2021/05/05 10:27:41;;;;;;;7.30;3.37;;;16.20;17.20;;;;;;5013738;28;20614;-71
2021/05/05 10:30:09;;;;;;;2.90;2.70;;;16.20;17.40;;;;;;5013830;28;20452;-71
2021/05/05 10:32:35;;;;;;;3.60;3.30;;;16.20;17.50;;;;;;5013994;28;20491;-71
2021/05/05 10:35:01;;;;;;;2.57;2.47;;;16.20;17.30;;;;;;5013577;28;20928;-71
2021/05/05 10:37:48;;;;;;;3.20;2.90;;;16.20;17.10;;;;;;5012405;28;20468;-73
2021/05/05 10:40:23;;;;;;;4.50;2.90;;;16.20;17.60;;;;;;5013938;28;20412;-71
2021/05/05 10:43:00;;;;;;;4.93;3.23;;;16.20;17.30;;;;;;5013490;28;20439;-71
2021/05/05 10:45:32;;;;;;;3.33;3.03;;;16.10;16.80;;;;;;5013642;28;20482;-71
2021/05/05 10:48:16;;;;;;;2.70;2.50;;;16.10;17.10;;;;;;5013660;28;20478;-71
2021/05/05 10:54:03;;;;;;;4.10;2.47;;;16.00;18.50;;;;;;5005691;28;20419;-72
2021/05/05 10:56:32;;;;;;;2.43;2.30;;;16.00;19.40;;;;;;5011191;28;20995;-72
2021/05/05 10:58:59;;;;;;;2.60;2.50;;;15.90;20.40;;;;;;5011777;28;20272;-72
2021/05/05 11:01:39;;;;;;;2.67;2.30;;;15.90;21.30;;;;;;5012886;28;20424;-73
2021/05/05 11:04:11;;;;;;;4.37;2.63;;;15.90;22.30;;;;;;5013158;28;20408;-74
2021/05/05 11:06:36;;;;;;;2.70;2.50;;;15.90;22.80;;;;;;5012985;28;20422;-74
2021/05/05 11:09:11;;;;;;;2.90;2.60;;;16.00;22.80;;;;;;5013317;28;21234;-73
2021/05/05 11:11:39;;;;;;;2.10;2.00;;;16.00;23.00;;;;;;5013111;28;20180;-74
2021/05/05 11:14:05;;;;;;;2.50;2.40;;;16.10;23.40;;;;;;5012036;28;20440;-74
2021/05/05 11:16:52;;;;;;;2.57;2.47;;;16.10;23.40;;;;;;5012813;28;20470;-72
2021/05/05 11:19:40;;;;;;;2.30;2.20;;;16.20;23.40;;;;;;5001920;28;20514;-73
2021/05/05 11:22:15;;;;;;;2.30;2.10;;;16.20;23.60;;;;;;5005354;28;20490;-74
2021/05/05 11:24:40;;;;;;;2.20;2.20;;;16.20;23.00;;;;;;5013024;28;20894;-73
2021/05/05 11:27:10;;;;;;;2.00;2.00;;;16.30;24.20;;;;;;5012878;28;20428;-74
2021/05/05 11:29:35;;;;;;;2.60;2.40;;;16.30;23.40;;;;;;5012836;28;20676;-73
2021/05/05 11:32:05;;;;;;;2.30;2.20;;;16.30;23.70;;;;;;5012974;28;20458;-74
2021/05/05 11:34:38;;;;;;;2.50;2.40;;;16.30;23.90;;;;;;5012633;28;20204;-72
2021/05/05 11:40:26;;;;;;;2.53;2.43;;;16.30;24.30;;;;;;5005699;28;20396;-74
2021/05/05 11:42:51;;;;;;;3.10;2.90;;;16.30;24.10;;;;;;5012797;28;20906;-74
2021/05/05 11:45:17;;;;;;;2.70;2.60;;;16.20;24.00;;;;;;5012775;28;20193;-73
2021/05/05 11:47:44;;;;;;;3.13;2.73;;;16.10;23.80;;;;;;5012468;28;20215;-73
2021/05/05 11:50:14;;;;;;;2.70;2.60;;;16.20;24.00;;;;;;5012796;28;20205;-74
2021/05/05 11:52:46;;;;;;;2.97;2.70;;;16.10;24.10;;;;;;5012802;28;20419;-75
2021/05/05 11:55:26;;;;;;;3.03;2.93;;;16.20;23.70;;;;;;5012517;28;20405;-74
2021/05/05 11:57:54;;;;;;;2.47;2.27;;;16.10;23.70;;;;;;5012623;28;20460;-73
2021/05/05 12:00:20;;;;;;;2.80;2.67;;;16.20;24.00;;;;;;5012647;28;20420;-74
2021/05/05 12:02:49;;;;;;;2.57;2.47;;;16.10;23.30;;;;;;5011393;28;20423;-74
2021/05/05 12:05:43;;;;;;;2.70;2.60;;;16.10;23.20;;;;;;5012320;28;20631;-73
2021/05/05 12:08:14;;;;;;;2.97;2.73;;;16.10;23.10;;;;;;5011857;28;20453;-74
2021/05/05 12:10:41;;;;;;;2.90;2.80;;;16.00;22.90;;;;;;5012303;28;20448;-74
2021/05/05 12:13:14;;;;;;;2.93;2.73;;;16.00;23.00;;;;;;5012762;28;20420;-73
2021/05/05 12:15:47;;;;;;;3.03;2.83;;;16.00;23.00;;;;;;5012255;28;20436;-74
2021/05/05 12:18:22;;;;;;;2.60;2.50;;;16.10;22.90;;;;;;5012085;28;20478;-74
2021/05/05 12:20:49;;;;;;;2.93;2.77;;;16.10;22.80;;;;;;5012291;28;20404;-75
2021/05/05 12:23:16;;;;;;;3.43;3.20;;;16.10;22.80;;;;;;5012388;28;20412;-74
2021/05/05 12:25:42;;;;;;;2.60;2.50;;;16.00;22.80;;;;;;5012731;28;20432;-74
2021/05/05 12:28:19;;;;;;;2.93;2.80;;;16.00;22.70;;;;;;5013992;28;20479;-74
2021/05/05 12:30:54;;;;;;;2.70;2.60;;;16.10;22.70;;;;;;5012217;28;20411;-74
2021/05/05 12:33:38;;;;;;;4.40;2.70;;;16.00;22.40;;;;;;5011823;28;20950;-73
2021/05/05 12:36:20;;;;;;;2.73;2.63;;;16.00;22.20;;;;;;5001009;28;20445;-74
2021/05/05 12:38:48;;;;;;;2.97;2.83;;;16.00;22.30;;;;;;4992437;28;20838;-75
2021/05/05 12:41:17;;;;;;;4.23;2.90;;;15.90;22.60;;;;;;4992616;28;20428;-76
2021/05/05 12:43:48;;;;;;;2.93;2.83;;;15.90;22.50;;;;;;4991751;28;20833;-75
2021/05/05 12:46:31;;;;;;;2.70;2.60;;;15.90;22.20;;;;;;4992139;28;20421;-74
2021/05/05 12:48:58;;;;;;;2.90;2.73;;;15.90;21.90;;;;;;4992306;28;20440;-74
2021/05/05 12:51:27;;;;;;;3.00;2.90;;;15.80;22.00;;;;;;4992489;28;20416;-73
2021/05/05 12:53:58;;;;;;;2.90;2.80;;;15.80;22.10;;;;;;5000315;28;20822;-74
2021/05/05 12:56:46;;;;;;;2.70;2.50;;;15.90;22.20;;;;;;5001685;28;20452;-76
2021/05/05 12:59:20;;;;;;;3.93;2.77;;;15.90;22.60;;;;;;5001877;28;20420;-75
2021/05/05 13:01:49;;;;;;;2.80;2.70;;;16.10;22.40;;;;;;4999433;28;20412;-74
2021/05/05 13:04:18;;;;;;;2.90;2.70;;;16.30;22.20;;;;;;5001837;28;20412;-74
2021/05/05 13:06:48;;;;;;;2.67;2.57;;;16.40;21.70;;;;;;4999049;28;20470;-74